Hors Challenge

Le jogging du souvenir - Rochefort (11.00 km)

samedi 15 juin 2019

Vous pouvez trouver Le classement original sur : http://ultratiming.be  
 
LE JOGGING DU SOUVENIR - ROCHEFORT
DISTANCE : 10.94 km
samedi 15 juin 2019
 
Place dos NOM Catégorie Pl/cat temps temps/km Vitesse
01:00:00              
1 2805 TRIBOLET GUILLAUME SEH 1 0:42:38 03:54 15.40
2 2815 ERRAMLI FARID SEH 2 0:43:56 04:01 14.94
3 2828 ANCIAUX JEAN-PAUL V2H 1 0:45:46 04:11 14.35
4 2847 KEMPINAIRE JONATHAN SEH 3 0:46:40 04:16 14.07
5 2857 GOFFAUX ADRIEN SEH 4 0:46:54 04:17 14.00
6 2846 KEMPINAIRE PHILIPPE SEH 5 0:47:18 04:19 13.88
7 2811 DUBOIS SEBASTIEN V1H 1 0:48:12 04:24 13.62
8 2801 DEMARS JEREMY SEH 6 0:49:05 04:29 13.38
9 2820 BURTOMBOY NICOLAS SEH 7 0:49:06 04:29 13.37
10 2823 PICKART THIBAUT SEH 8 0:50:23 04:36 13.03
11 2850 PIHART HUGO V1H 2 0:51:12 04:41 12.82
12 2853 BERNARD JULIEN SEH 9 0:51:21 04:42 12.79
13 2840 SERVAIS STÉPHANE V2H 2 0:51:56 04:45 12.64
14 2844 LEMAIRE NICOLAS V1H 3 0:53:01 04:51 12.38
15 2841 LEFEBVRE DAVID V1H 4 0:54:59 05:01 11.94
16 2814 SION EMMANUELLE V1F 1 0:55:14 05:03 11.89
17 2851 HUGOT CEDRIC V1H 5 0:56:38 05:11 11.59
18 2849 DEJONCHEERE SEBASTIEN SEH 10 0:57:37 05:16 11.40
19 2825 DEPOORTER LUC V1H 6 0:57:38 05:16 11.39
20 2822 LEODET BERTRAND SEH 11 0:58:01 05:18 11.32
21 2826 FOURNY CHRISTOPHE SEH 12 0:58:11 05:19 11.28
22 2824 FAYS LAURENT V2H 3 0:58:23 05:20 11.25
23 2809 FELOT MICHEL V3H 1 0:58:26 05:20 11.24
24 2843 BRASSEUR PHILIPPE V2H 4 0:58:49 05:23 11.16
25 2854 BERNARD REMI SEH 13 1:00:19 05:31 10.89
26 2821 LEODET JULIEN SEH 14 1:00:22 05:31 10.88
27 2813 CHARLOT BENOIT V1H 7 1:00:59 05:34 10.77
28 2860 LIB... MARC V1H 8 1:01:10 05:35 10.73
29 2855 BAIJOT MAXIME SEH 15 1:01:33 05:37 10.67
30 2807 DUSSART FABRICE V2H 5 1:01:37 05:38 10.66
31 2856 MARTIN MATHIAS SEH 16 1:02:04 05:40 10.58
32 2834 FASTRES MICKAEL SEH 17 1:02:06 05:41 10.57
33 2808 MARTIN JULIE V1F 2 1:02:20 05:42 10.53
34 2829 SIMON AMANDINE SEF 1 1:02:43 05:44 10.47
35 2812 GEVAERT MAXIME ESH 1 1:02:56 05:45 10.43
36 2806 CSIK JULIE SEF 2 1:03:59 05:51 10.26
37 2816 LEFEBVRE CATHERINE SEF 3 1:04:04 05:51 10.25
38 2839 COLINET SEBASTIEN V1H 9 1:04:49 05:55 10.13
39 2861 SADZOT DIMITRY SEH 18 1:05:10 05:57 10.07
40 2836 JANS SIEGRID V2F 1 1:07:06 06:08 9.78
41 2862 DUMONT A-S V1F 3 1:07:10 06:08 9.77
42 2832 PAPART AURELIE V1F 4 1:07:22 06:09 9.75
43 2817 WAVREIL DAMIEN SEH 19 1:08:19 06:15 9.61
44 2803 GODFROID JOSÉ V2H 6 1:09:16 06:20 9.48
45 2802 SCHMITZ JANNICK V1H 10 1:09:17 06:20 9.48
46 2837 HUBERT C.... ESH 2 1:09:33 06:21 9.44
47 2818 SONCK INGRID V1F 5 1:09:53 06:23 9.39
48 2819 PECKET BENOIT V1H 11 1:09:53 06:23 9.39
49 2852 MARION JANNICK V2F 2 1:10:14 06:25 9.35
50 2810 ALIN YONI ESH 3 1:10:14 06:25 9.35
51 2831 GUILI THOMAS SEH 20 1:11:12 06:30 9.22
52 2845 BURLET POL V3H 2 1:12:02 06:35 9.11
53 2804 DEWEZ LAURENCE V2F 3 1:13:38 06:44 8.92
54 2830 DELOGNE MAGALI V2F 4 1:13:59 06:46 8.87
55 2833 GUERREIRO SERGIO SEH 21 1:14:21 06:48 8.83
56 2848 DASNOIS NANCY V2F 5 1:15:20 06:53 8.72
57 2838 SCHREDER BARBARA V2F 6 1:15:36 06:55 8.68
58 2842 CHARLIER LEONIE V3F 1 1:17:40 07:06 8.45
59 2859 MOMMAERTS JULIE V1F 6 1:18:16 07:09 8.39
60 2835 VANHOVE CHRISTEL V2F 7 1:24:49 07:45 7.74
61 2827 GOFFAUX BRIGITTE V2F 8 1:32:06 08:25 7.13